Time;durP1;ratioP1;P1;durP2;ratioP2;P2;SDS_P1;SDS_P2;PMS_P1;PMS_P2;Temp;Humidity;BMP_temperature;BMP_pressure;BME280_temperature;BME280_humidity;BME280_pressure;Samples;Min_cycle;Max_cycle;Signal;HPM_P1;HPM_P2
2022/08/26 00:00:47;;;;;;;32.20;30.27;;;21.20;76.70;;;;;;5001543;28;20512;-67
2022/08/26 00:03:15;;;;;;;30.17;28.67;;;21.20;77.00;;;;;;4998761;28;21053;-67
2022/08/26 00:05:42;;;;;;;30.90;29.33;;;21.20;77.00;;;;;;5006031;28;20450;-67
2022/08/26 00:08:13;;;;;;;31.40;29.80;;;21.20;76.90;;;;;;4999589;28;20488;-67
2022/08/26 00:10:40;;;;;;;34.40;32.70;;;21.10;77.10;;;;;;5002992;28;20467;-67
2022/08/26 00:13:09;;;;;;;32.73;31.10;;;21.10;77.30;;;;;;5000105;28;21042;-68
2022/08/26 00:15:36;;;;;;;31.50;30.00;;;21.10;77.30;;;;;;5005292;28;20457;-67
2022/08/26 00:18:03;;;;;;;31.73;30.13;;;21.00;77.20;;;;;;5000049;28;20542;-67
2022/08/26 00:20:33;;;;;;;31.87;30.07;;;21.10;77.10;;;;;;5005352;28;20608;-67
2022/08/26 00:23:00;;;;;;;31.33;29.83;;;21.10;77.00;;;;;;5003863;28;20476;-67
2022/08/26 00:25:29;;;;;;;30.13;28.63;;;21.10;76.80;;;;;;5006896;28;20756;-67
2022/08/26 00:27:56;;;;;;;33.40;31.70;;;21.10;76.80;;;;;;5006376;28;20465;-67
2022/08/26 00:30:26;;;;;;;31.07;29.50;;;21.10;76.70;;;;;;5005278;28;20469;-67
2022/08/26 00:32:53;;;;;;;29.93;28.43;;;21.10;76.70;;;;;;5001028;28;20899;-66
2022/08/26 00:35:20;;;;;;;31.70;30.00;;;21.10;76.70;;;;;;5006132;28;20445;-66
2022/08/26 00:37:47;;;;;;;31.93;30.33;;;21.10;76.90;;;;;;5000636;28;20921;-66
2022/08/26 00:40:18;;;;;;;30.77;29.27;;;21.00;76.90;;;;;;5007085;28;20463;-66
2022/08/26 00:42:46;;;;;;;32.03;30.33;;;21.10;76.60;;;;;;5006360;28;20559;-66
2022/08/26 00:45:15;;;;;;;32.37;30.77;;;21.10;76.60;;;;;;5006946;28;20453;-66
2022/08/26 00:47:46;;;;;;;32.53;30.93;;;21.10;76.70;;;;;;5006060;28;20871;-66
2022/08/26 00:50:16;;;;;;;31.53;29.93;;;21.10;76.80;;;;;;5008245;28;20487;-66
2022/08/26 00:52:44;;;;;;;31.50;29.90;;;21.20;76.80;;;;;;5007972;28;20551;-66
2022/08/26 00:55:16;;;;;;;32.90;31.13;;;21.10;76.80;;;;;;5006988;28;20485;-66
2022/08/26 00:57:43;;;;;;;32.70;31.00;;;21.10;76.90;;;;;;5005349;28;20494;-67
2022/08/26 01:00:18;;;;;;;35.60;33.70;;;21.10;77.00;;;;;;5006717;28;20449;-66
2022/08/26 01:02:47;;;;;;;33.67;31.90;;;21.10;77.00;;;;;;5006432;28;20483;-67
2022/08/26 01:05:15;;;;;;;33.30;31.70;;;21.10;77.10;;;;;;5006813;28;20457;-66
2022/08/26 01:07:42;;;;;;;33.80;31.80;;;21.20;76.90;;;;;;5003242;28;20467;-66
2022/08/26 01:10:14;;;;;;;32.77;31.10;;;21.20;76.80;;;;;;5005197;28;20465;-67
2022/08/26 01:12:44;;;;;;;31.83;30.30;;;21.10;77.20;;;;;;5003155;28;21022;-69
2022/08/26 01:15:18;;;;;;;32.17;30.57;;;20.90;77.60;;;;;;5003831;28;20548;-69
2022/08/26 01:17:46;;;;;;;32.00;30.30;;;20.80;77.90;;;;;;5004950;28;20528;-70
2022/08/26 01:20:24;;;;;;;32.20;30.40;;;20.80;78.20;;;;;;5004851;28;20552;-69
2022/08/26 01:22:57;;;;;;;34.90;32.90;;;20.70;78.40;;;;;;5000228;28;20576;-69
2022/08/26 01:25:27;;;;;;;32.83;31.03;;;20.70;78.60;;;;;;5009215;28;20466;-66
2022/08/26 01:27:56;;;;;;;34.43;32.53;;;20.70;78.80;;;;;;5003630;28;20458;-66
2022/08/26 01:30:23;;;;;;;35.27;33.47;;;20.70;78.70;;;;;;5004696;28;20457;-66
2022/08/26 01:32:52;;;;;;;34.67;32.87;;;20.60;78.80;;;;;;5003793;28;20454;-66
2022/08/26 01:35:19;;;;;;;33.63;31.93;;;20.60;79.00;;;;;;5003931;28;20500;-66
2022/08/26 01:37:50;;;;;;;33.30;31.60;;;20.50;79.20;;;;;;5000950;28;20527;-66
2022/08/26 01:40:25;;;;;;;33.53;31.43;;;20.40;79.60;;;;;;5003361;28;20464;-66
2022/08/26 01:42:53;;;;;;;33.63;32.03;;;20.40;79.50;;;;;;4995331;28;20480;-66
2022/08/26 01:45:23;;;;;;;34.13;32.33;;;20.40;79.60;;;;;;5002016;28;20461;-67
2022/08/26 01:47:52;;;;;;;35.83;33.90;;;20.40;79.70;;;;;;5003018;28;20548;-66
2022/08/26 01:50:24;;;;;;;34.00;32.00;;;20.40;79.80;;;;;;5002887;28;20476;-66
2022/08/26 01:52:54;;;;;;;33.73;31.90;;;20.30;79.90;;;;;;5002224;28;20484;-66
2022/08/26 01:55:24;;;;;;;32.90;31.20;;;20.30;79.90;;;;;;5003378;28;20461;-66
2022/08/26 01:57:56;;;;;;;35.67;33.97;;;20.20;80.10;;;;;;4996687;28;20845;-66
2022/08/26 02:00:24;;;;;;;35.67;33.60;;;20.20;80.30;;;;;;5000826;28;20511;-66
2022/08/26 02:03:15;;;;;;;34.43;32.73;;;20.10;80.50;;;;;;4994806;28;20483;-67
2022/08/26 02:05:41;;;;;;;33.43;31.83;;;20.10;80.70;;;;;;4999953;28;20456;-65
2022/08/26 02:08:09;;;;;;;34.17;32.50;;;20.00;80.90;;;;;;4999976;28;20585;-66
2022/08/26 02:10:37;;;;;;;34.80;33.10;;;20.00;80.90;;;;;;5000856;28;20450;-66
2022/08/26 02:13:06;;;;;;;34.97;33.27;;;20.00;81.00;;;;;;5000389;28;20464;-66
2022/08/26 02:15:33;;;;;;;34.97;33.07;;;20.00;81.10;;;;;;5002381;28;20888;-66
2022/08/26 02:18:01;;;;;;;33.67;31.97;;;20.00;81.00;;;;;;5000258;28;20903;-66
2022/08/26 02:20:28;;;;;;;38.20;36.40;;;20.00;80.90;;;;;;4999854;28;20475;-66
2022/08/26 02:22:56;;;;;;;34.87;33.00;;;20.00;81.00;;;;;;5003329;28;20878;-66
2022/08/26 02:25:27;;;;;;;53.00;50.27;;;20.10;80.90;;;;;;5004176;28;20574;-66
2022/08/26 02:27:56;;;;;;;38.33;36.13;;;20.00;80.90;;;;;;5001829;28;20464;-67
2022/08/26 02:30:27;;;;;;;35.43;33.47;;;19.90;81.20;;;;;;4995812;28;20472;-66
2022/08/26 02:32:54;;;;;;;31.87;30.27;;;19.90;81.20;;;;;;4996043;28;20461;-66
2022/08/26 02:35:23;;;;;;;41.10;39.00;;;19.90;81.30;;;;;;5007087;28;20464;-66
2022/08/26 02:37:50;;;;;;;32.60;31.00;;;19.90;81.40;;;;;;4999853;28;20567;-66
2022/08/26 02:40:21;;;;;;;37.70;35.60;;;19.80;81.70;;;;;;4999821;28;20465;-66
2022/08/26 02:42:48;;;;;;;34.20;32.50;;;19.70;81.90;;;;;;5003477;28;20484;-66
2022/08/26 02:45:17;;;;;;;32.27;30.57;;;19.70;81.90;;;;;;5001058;28;20521;-66
2022/08/26 02:47:45;;;;;;;37.30;35.07;;;19.70;82.10;;;;;;5001380;28;20466;-65
2022/08/26 02:50:12;;;;;;;36.10;34.30;;;19.70;82.10;;;;;;5005226;28;20455;-66
2022/08/26 02:52:39;;;;;;;42.53;40.10;;;19.70;82.10;;;;;;5002419;28;20488;-66
2022/08/26 02:55:07;;;;;;;42.20;40.07;;;19.70;82.00;;;;;;5003847;28;20566;-67
2022/08/26 02:57:34;;;;;;;34.77;32.87;;;19.70;82.00;;;;;;5003219;28;20457;-66
2022/08/26 03:00:01;;;;;;;36.30;34.50;;;19.70;82.00;;;;;;5001715;28;20984;-66
2022/08/26 03:02:30;;;;;;;46.90;44.53;;;19.70;81.90;;;;;;5001792;28;20485;-66
2022/08/26 03:04:57;;;;;;;34.40;32.70;;;19.70;82.00;;;;;;5004439;28;20568;-66
2022/08/26 03:07:24;;;;;;;35.70;33.90;;;19.70;82.00;;;;;;5001238;28;20463;-66
2022/08/26 03:09:51;;;;;;;42.80;40.67;;;19.70;81.90;;;;;;5005641;28;20478;-66
2022/08/26 03:12:19;;;;;;;50.20;47.37;;;19.70;81.90;;;;;;5003705;28;20476;-66
2022/08/26 03:14:46;;;;;;;33.93;32.30;;;19.60;82.20;;;;;;5001400;28;20550;-66
2022/08/26 03:17:13;;;;;;;41.23;39.10;;;19.50;82.40;;;;;;5004160;28;20456;-66
2022/08/26 03:19:41;;;;;;;39.83;37.73;;;19.50;82.40;;;;;;5004108;28;20464;-66
2022/08/26 03:22:08;;;;;;;38.77;36.57;;;19.50;82.40;;;;;;5001720;28;20479;-66
2022/08/26 03:24:35;;;;;;;55.10;52.40;;;19.50;82.40;;;;;;4997517;28;20549;-71
2022/08/26 03:27:02;;;;;;;36.23;34.33;;;19.60;82.40;;;;;;5005059;28;20463;-70
2022/08/26 03:32:15;;;;;;;43.53;41.03;;;19.50;82.40;;;;;;5002100;28;20481;-70
2022/08/26 03:34:43;;;;;;;38.60;36.63;;;19.50;82.40;;;;;;5006037;28;20461;-67
2022/08/26 03:37:10;;;;;;;47.30;45.00;;;19.50;82.40;;;;;;5005198;28;21009;-66
2022/08/26 03:39:37;;;;;;;69.20;65.90;;;19.40;82.50;;;;;;4999539;28;20459;-66
2022/08/26 03:42:05;;;;;;;40.00;38.00;;;19.30;82.90;;;;;;5004417;28;20514;-66
2022/08/26 03:44:32;;;;;;;62.60;59.50;;;19.30;83.00;;;;;;5001192;28;20487;-66
2022/08/26 03:46:59;;;;;;;39.33;37.33;;;19.20;83.30;;;;;;5007047;28;20538;-66
2022/08/26 03:49:25;;;;;;;54.23;51.63;;;19.20;83.30;;;;;;5003314;28;20459;-66
2022/08/26 03:51:54;;;;;;;43.73;41.70;;;19.20;83.30;;;;;;5005468;28;21075;-66
2022/08/26 03:54:21;;;;;;;35.33;33.43;;;19.20;83.30;;;;;;5003516;28;20469;-67
2022/08/26 03:56:47;;;;;;;42.77;40.77;;;19.20;83.30;;;;;;5007155;28;20824;-66
2022/08/26 03:59:14;;;;;;;59.17;55.87;;;19.20;83.40;;;;;;5004224;28;20499;-66
2022/08/26 04:01:41;;;;;;;62.27;59.03;;;19.30;83.20;;;;;;5008772;28;20589;-66
2022/08/26 04:04:08;;;;;;;35.40;33.50;;;19.30;83.00;;;;;;5003616;28;20481;-66
2022/08/26 04:06:38;;;;;;;37.57;35.77;;;19.30;82.90;;;;;;5008714;28;21021;-66
2022/08/26 04:09:10;;;;;;;34.07;32.47;;;19.40;82.70;;;;;;5004190;28;21006;-66
2022/08/26 04:11:38;;;;;;;42.37;40.33;;;19.40;82.40;;;;;;5006166;28;20515;-66
2022/08/26 04:14:07;;;;;;;38.47;36.53;;;19.40;82.40;;;;;;5007780;28;20554;-66
2022/08/26 04:16:34;;;;;;;54.00;51.30;;;19.50;82.20;;;;;;5005667;28;20548;-67
2022/08/26 04:19:02;;;;;;;47.40;44.97;;;19.50;82.20;;;;;;5007770;28;20462;-67
2022/08/26 04:21:29;;;;;;;34.30;32.50;;;19.50;82.10;;;;;;5007344;28;20486;-66
2022/08/26 04:23:56;;;;;;;54.07;51.07;;;19.50;81.90;;;;;;5006248;28;21072;-70
2022/08/26 04:26:24;;;;;;;34.70;32.73;;;19.50;81.90;;;;;;5005969;28;20467;-66
2022/08/26 04:28:53;;;;;;;37.10;35.20;;;19.50;81.90;;;;;;5005261;28;20543;-66
2022/08/26 04:31:20;;;;;;;44.90;42.83;;;19.50;81.90;;;;;;5005814;28;21064;-66
2022/08/26 04:33:49;;;;;;;37.10;35.23;;;19.40;81.70;;;;;;5005666;28;20464;-66
2022/08/26 04:36:16;;;;;;;35.72;33.92;;;19.40;82.00;;;;;;5005723;28;20916;-66
2022/08/26 04:38:44;;;;;;;53.97;51.20;;;19.50;81.70;;;;;;5005907;28;20200;-66
2022/08/26 04:41:12;;;;;;;38.43;36.57;;;19.40;82.00;;;;;;5001399;28;20490;-66
2022/08/26 04:43:40;;;;;;;36.13;34.10;;;19.40;82.10;;;;;;4984157;28;20787;-66
2022/08/26 04:46:09;;;;;;;43.63;41.50;;;19.40;82.00;;;;;;5008526;28;20462;-66
2022/08/26 04:48:36;;;;;;;55.00;52.47;;;19.40;82.10;;;;;;5004150;28;20869;-66
2022/08/26 04:51:03;;;;;;;37.07;35.17;;;19.40;82.00;;;;;;5010498;28;20481;-66
2022/08/26 04:53:31;;;;;;;37.57;35.53;;;19.50;81.70;;;;;;5000232;28;20984;-66
2022/08/26 04:56:00;;;;;;;50.77;48.33;;;19.50;81.40;;;;;;5009985;28;20803;-66
2022/08/26 04:58:27;;;;;;;48.33;45.90;;;19.40;81.60;;;;;;5002519;28;20539;-66
2022/08/26 05:00:56;;;;;;;46.40;44.10;;;19.40;81.80;;;;;;5005433;28;20487;-66
2022/08/26 05:03:26;;;;;;;53.50;50.70;;;19.40;81.80;;;;;;5002317;28;21076;-66
2022/08/26 05:05:53;;;;;;;37.67;35.67;;;19.50;81.50;;;;;;5017451;28;20470;-66
2022/08/26 05:08:21;;;;;;;41.00;38.97;;;19.50;81.50;;;;;;5008824;28;20470;-66
2022/08/26 05:10:50;;;;;;;49.87;47.33;;;19.60;81.40;;;;;;5005874;28;20978;-65
2022/08/26 05:13:19;;;;;;;49.40;46.87;;;19.70;81.00;;;;;;4997346;28;20547;-65
2022/08/26 05:15:47;;;;;;;38.80;36.90;;;20.00;80.10;;;;;;5003369;28;21035;-65
2022/08/26 05:18:17;;;;;;;51.30;48.77;;;20.10;79.70;;;;;;5009724;28;20481;-68
2022/08/26 05:20:45;;;;;;;57.20;54.13;;;20.10;79.30;;;;;;5014241;28;20540;-68
2022/08/26 05:23:13;;;;;;;42.90;40.60;;;20.20;79.10;;;;;;5011119;28;20492;-69
2022/08/26 05:25:42;;;;;;;58.10;55.17;;;20.20;79.10;;;;;;5012960;28;20556;-66
2022/08/26 05:28:10;;;;;;;41.10;39.00;;;20.30;79.00;;;;;;5006833;28;20465;-66
2022/08/26 05:30:38;;;;;;;39.70;37.50;;;20.50;78.60;;;;;;5005871;28;20476;-66
2022/08/26 05:33:06;;;;;;;51.47;49.03;;;20.50;78.40;;;;;;5010505;28;20461;-66
2022/08/26 05:35:34;;;;;;;43.90;41.80;;;20.60;78.20;;;;;;5005281;28;20540;-66
2022/08/26 05:38:03;;;;;;;46.87;44.40;;;20.70;77.90;;;;;;5003170;28;20471;-66
2022/08/26 05:40:34;;;;;;;42.87;40.33;;;20.70;77.50;;;;;;4999951;28;20571;-67
2022/08/26 05:43:02;;;;;;;41.33;39.17;;;20.80;77.50;;;;;;5004463;28;20456;-67
2022/08/26 05:45:30;;;;;;;43.37;40.67;;;20.80;77.40;;;;;;5005493;28;20492;-69
2022/08/26 05:47:57;;;;;;;47.93;45.67;;;20.80;77.10;;;;;;4999485;28;20461;-68
2022/08/26 05:50:25;;;;;;;38.53;36.40;;;20.90;76.80;;;;;;5007754;28;21185;-69
2022/08/26 05:52:53;;;;;;;38.67;36.27;;;21.00;76.60;;;;;;5005956;28;20526;-67
2022/08/26 05:55:21;;;;;;;48.70;46.00;;;21.10;76.40;;;;;;5011515;28;22420;-69
2022/08/26 05:57:47;;;;;;;40.07;37.93;;;21.20;76.10;;;;;;5006013;28;20470;-72
2022/08/26 06:00:15;;;;;;;50.63;47.70;;;21.20;76.00;;;;;;5004075;28;20549;-70
2022/08/26 06:02:42;;;;;;;58.87;55.77;;;21.30;75.50;;;;;;5006578;28;20539;-70
2022/08/26 06:05:09;;;;;;;56.10;53.13;;;21.40;75.30;;;;;;5012933;28;20999;-72
2022/08/26 06:10:22;;;;;;;39.63;37.20;;;21.40;75.30;;;;;;5006961;28;20460;-72
2022/08/26 06:12:49;;;;;;;54.03;51.27;;;21.40;75.30;;;;;;5011523;28;20587;-69
2022/08/26 06:15:16;;;;;;;51.37;48.53;;;21.40;75.20;;;;;;5009099;28;20456;-72
2022/08/26 06:17:43;;;;;;;56.30;53.30;;;21.40;75.30;;;;;;5007571;28;20548;-73
2022/08/26 06:20:11;;;;;;;38.87;36.87;;;21.40;75.20;;;;;;4999801;28;20821;-71
2022/08/26 06:25:38;;;;;;;59.87;57.10;;;21.40;75.30;;;;;;5005704;28;20480;-74
2022/08/26 06:28:06;;;;;;;55.30;52.53;;;21.40;75.20;;;;;;4998105;28;20453;-71
2022/08/26 06:30:34;;;;;;;60.40;57.10;;;21.40;75.10;;;;;;5012142;28;20811;-72
2022/08/26 06:33:01;;;;;;;60.50;57.40;;;21.40;75.20;;;;;;5008758;28;20522;-70
2022/08/26 06:35:28;;;;;;;52.30;49.63;;;21.50;75.20;;;;;;5013208;28;20959;-71
2022/08/26 06:37:55;;;;;;;38.60;36.70;;;21.50;75.10;;;;;;5008120;28;20469;-70
2022/08/26 06:40:23;;;;;;;41.90;39.83;;;21.50;75.00;;;;;;5008446;28;20548;-70
2022/08/26 06:42:50;;;;;;;50.10;47.70;;;21.50;75.00;;;;;;5003866;28;20469;-71
2022/08/26 06:45:17;;;;;;;51.50;48.80;;;21.70;74.80;;;;;;4993637;28;20470;-71
2022/08/26 06:47:44;;;;;;;50.67;48.10;;;21.70;74.40;;;;;;4997900;28;20457;-69
2022/08/26 06:50:11;;;;;;;48.57;45.67;;;21.80;74.40;;;;;;5003936;28;20466;-71
2022/08/26 06:52:41;;;;;;;60.30;56.67;;;21.80;74.50;;;;;;4997414;28;20560;-70
2022/08/26 06:55:09;;;;;;;59.53;56.07;;;21.90;74.30;;;;;;5000893;28;20457;-71
2022/08/26 06:57:37;;;;;;;43.93;41.20;;;22.00;73.80;;;;;;4996654;28;20466;-69
2022/08/26 07:00:06;;;;;;;60.60;57.33;;;22.00;73.70;;;;;;5003473;28;20889;-71
2022/08/26 07:02:36;;;;;;;57.03;53.93;;;22.20;73.80;;;;;;5000609;28;20541;-74
2022/08/26 07:05:03;;;;;;;54.93;51.80;;;22.20;73.50;;;;;;5000992;28;20489;-69
2022/08/26 07:07:30;;;;;;;56.67;53.47;;;22.30;72.80;;;;;;4998459;28;20546;-70
2022/08/26 07:09:57;;;;;;;47.90;45.07;;;22.40;72.90;;;;;;5000637;28;20498;-69
2022/08/26 07:12:24;;;;;;;39.83;37.20;;;22.50;72.50;;;;;;5000057;28;20474;-71
2022/08/26 07:14:53;;;;;;;43.77;40.30;;;22.70;72.00;;;;;;4998907;28;20467;-70
2022/08/26 07:17:19;;;;;;;56.80;53.70;;;22.90;71.30;;;;;;4998301;28;20491;-71
2022/08/26 07:19:47;;;;;;;50.10;47.60;;;23.00;71.10;;;;;;4997630;28;20789;-69
2022/08/26 07:22:29;;;;;;;43.13;40.47;;;23.20;70.40;;;;;;4999848;28;20896;-70
2022/08/26 07:24:56;;;;;;;45.13;42.37;;;23.30;70.20;;;;;;4997637;28;21012;-70
2022/08/26 07:27:23;;;;;;;51.80;48.50;;;23.40;69.90;;;;;;5000797;28;20467;-67
2022/08/26 07:29:50;;;;;;;67.97;64.00;;;23.60;69.60;;;;;;4992543;28;20461;-67
2022/08/26 07:32:20;;;;;;;52.50;49.40;;;23.70;69.10;;;;;;5000879;28;20501;-67
2022/08/26 07:34:47;;;;;;;50.27;47.17;;;23.90;68.70;;;;;;4996403;28;20470;-67
2022/08/26 07:37:14;;;;;;;46.77;43.40;;;24.00;68.50;;;;;;5001685;28;20568;-67
2022/08/26 07:39:43;;;;;;;50.60;47.57;;;24.10;68.10;;;;;;4997008;28;20473;-67
2022/08/26 07:42:12;;;;;;;61.23;57.20;;;24.20;67.50;;;;;;4997193;28;20481;-67
2022/08/26 07:44:40;;;;;;;53.80;50.80;;;24.30;67.50;;;;;;4995160;28;20476;-67
2022/08/26 07:47:07;;;;;;;57.70;54.70;;;24.40;66.80;;;;;;4998474;28;20962;-67
2022/08/26 07:49:36;;;;;;;43.57;41.27;;;24.50;66.50;;;;;;4995801;28;21032;-67
2022/08/26 07:52:04;;;;;;;50.67;48.23;;;24.50;66.50;;;;;;5001430;28;20477;-67
2022/08/26 07:54:31;;;;;;;46.83;44.20;;;24.50;66.20;;;;;;4997434;28;21054;-68
2022/08/26 07:56:58;;;;;;;45.93;43.53;;;24.70;66.00;;;;;;4998484;28;21022;-69
2022/08/26 07:59:25;;;;;;;60.57;57.27;;;24.70;65.90;;;;;;4997122;28;20488;-69
2022/08/26 08:01:52;;;;;;;54.03;51.03;;;24.60;65.80;;;;;;4996494;28;20528;-69
2022/08/26 08:04:20;;;;;;;49.00;46.40;;;24.80;65.60;;;;;;4999979;28;20540;-69
2022/08/26 08:06:48;;;;;;;41.60;39.30;;;24.80;65.50;;;;;;5017806;28;20453;-69
2022/08/26 08:09:15;;;;;;;57.10;53.67;;;24.90;65.00;;;;;;5000678;28;20464;-74
2022/08/26 08:11:43;;;;;;;48.23;45.53;;;24.70;65.80;;;;;;5004619;28;20533;-70
2022/08/26 08:14:10;;;;;;;51.53;48.70;;;24.70;66.20;;;;;;5007085;28;20465;-72
2022/08/26 08:16:37;;;;;;;62.83;59.20;;;24.80;66.00;;;;;;5007285;28;20503;-73
2022/08/26 08:19:04;;;;;;;40.10;37.80;;;24.90;65.70;;;;;;5003043;28;20461;-74
2022/08/26 08:21:31;;;;;;;57.63;54.37;;;25.10;65.40;;;;;;4992740;28;20575;-71
2022/08/26 08:23:59;;;;;;;42.10;39.90;;;25.30;64.70;;;;;;5002237;28;20540;-71
2022/08/26 08:26:27;;;;;;;49.87;47.33;;;25.50;64.00;;;;;;5005267;28;21064;-71
2022/08/26 08:28:56;;;;;;;44.20;41.63;;;25.70;63.10;;;;;;5004136;28;20489;-70
2022/08/26 08:31:25;;;;;;;57.33;54.50;;;25.60;62.90;;;;;;5007667;28;20936;-69
2022/08/26 08:33:52;;;;;;;56.03;53.27;;;25.70;62.40;;;;;;5006821;28;20557;-68
2022/08/26 08:36:19;;;;;;;42.33;39.63;;;25.90;62.50;;;;;;5007793;28;20552;-69
2022/08/26 08:38:46;;;;;;;49.67;47.20;;;26.00;62.30;;;;;;5005226;28;20536;-69
2022/08/26 08:41:31;;;;;;;44.63;42.53;;;26.20;62.00;;;;;;5017214;28;20531;-69
2022/08/26 08:44:00;;;;;;;41.67;39.07;;;26.20;61.90;;;;;;5005651;28;20469;-68
2022/08/26 08:46:28;;;;;;;43.07;40.70;;;26.40;61.10;;;;;;5001793;28;20473;-68
2022/08/26 08:48:59;;;;;;;50.00;47.30;;;26.60;60.60;;;;;;5006928;28;20847;-70
2022/08/26 08:51:34;;;;;;;56.13;53.20;;;26.60;60.40;;;;;;4996645;28;21044;-67
2022/08/26 08:54:02;;;;;;;44.00;41.40;;;26.60;60.30;;;;;;4997098;28;20467;-71
2022/08/26 08:56:32;;;;;;;53.10;50.00;;;26.90;58.90;;;;;;5003100;28;20902;-71
2022/08/26 08:59:07;;;;;;;39.43;37.23;;;27.00;58.90;;;;;;5001900;28;20555;-73
2022/08/26 09:01:49;;;;;;;37.83;35.77;;;27.30;58.80;;;;;;5001037;28;20663;-70
2022/08/26 09:04:27;;;;;;;42.60;40.30;;;27.40;58.40;;;;;;5005882;28;20546;-70
2022/08/26 09:06:58;;;;;;;45.97;43.40;;;27.50;58.10;;;;;;5009758;28;20551;-70
2022/08/26 09:09:34;;;;;;;40.00;38.00;;;27.60;58.20;;;;;;5003684;28;20564;-70
2022/08/26 09:12:07;;;;;;;38.90;36.90;;;27.90;57.60;;;;;;5012669;28;20484;-73
2022/08/26 09:14:34;;;;;;;56.83;53.50;;;28.20;57.00;;;;;;4999201;28;20537;-69
2022/08/26 09:17:09;;;;;;;53.33;50.23;;;28.40;56.80;;;;;;5017662;28;20480;-72
2022/08/26 09:19:40;;;;;;;54.13;51.23;;;28.60;56.10;;;;;;5009105;28;20551;-68
2022/08/26 09:22:32;;;;;;;48.63;46.00;;;28.80;56.00;;;;;;5004880;28;20982;-68
2022/08/26 09:25:00;;;;;;;47.97;45.37;;;28.90;55.80;;;;;;5009502;28;20796;-67
2022/08/26 09:27:40;;;;;;;44.67;42.20;;;29.00;55.20;;;;;;5001613;28;20990;-68
2022/08/26 09:30:09;;;;;;;44.07;41.63;;;28.90;55.10;;;;;;5009234;28;21002;-68
2022/08/26 09:32:37;;;;;;;45.17;42.87;;;28.80;55.50;;;;;;5008537;28;20481;-68
2022/08/26 09:35:08;;;;;;;47.83;45.13;;;28.90;55.40;;;;;;5000560;28;20460;-70
2022/08/26 09:37:39;;;;;;;42.60;40.23;;;29.00;54.80;;;;;;5009482;28;20531;-70
2022/08/26 09:40:17;;;;;;;48.63;45.63;;;29.10;54.60;;;;;;5008027;28;20551;-70
2022/08/26 09:42:45;;;;;;;39.60;37.40;;;29.10;54.90;;;;;;5008463;28;20491;-71
2022/08/26 09:45:13;;;;;;;52.60;49.97;;;29.20;54.60;;;;;;4997237;28;20486;-70
2022/08/26 09:47:52;;;;;;;47.17;44.70;;;29.30;54.50;;;;;;5007557;28;20962;-72
2022/08/26 09:50:25;;;;;;;43.27;40.70;;;29.40;54.20;;;;;;4999955;28;20540;-71
2022/08/26 09:53:05;;;;;;;44.43;42.13;;;29.70;53.80;;;;;;5008900;28;20796;-67
2022/08/26 09:55:32;;;;;;;43.20;40.80;;;29.80;53.30;;;;;;5010356;28;21211;-68
2022/08/26 09:58:00;;;;;;;43.90;41.20;;;29.80;53.30;;;;;;5007650;28;20552;-66
2022/08/26 10:00:31;;;;;;;40.43;38.43;;;29.90;53.20;;;;;;5006631;28;20564;-68
2022/08/26 10:02:59;;;;;;;50.37;47.23;;;29.80;53.30;;;;;;5006835;28;20469;-68
2022/08/26 10:05:32;;;;;;;40.47;38.27;;;29.90;53.00;;;;;;5007878;28;20481;-65
2022/08/26 10:07:59;;;;;;;40.50;38.20;;;30.00;53.00;;;;;;5006998;28;20561;-68
2022/08/26 10:10:32;;;;;;;41.63;38.50;;;30.10;52.90;;;;;;5002311;28;20536;-67
2022/08/26 10:13:04;;;;;;;42.40;39.60;;;30.30;52.10;;;;;;5007573;28;20453;-69
2022/08/26 10:15:41;;;;;;;57.00;53.90;;;30.50;51.90;;;;;;5010935;28;20553;-68
2022/08/26 10:18:14;;;;;;;49.50;46.50;;;30.50;52.00;;;;;;5009493;28;20547;-67
2022/08/26 10:20:54;;;;;;;41.00;38.50;;;30.40;52.20;;;;;;5009468;28;20456;-66
2022/08/26 10:23:25;;;;;;;42.83;40.03;;;30.40;52.10;;;;;;5008575;28;20466;-66
2022/08/26 10:25:56;;;;;;;48.20;45.40;;;30.40;52.20;;;;;;5003270;28;20477;-66
2022/08/26 10:28:33;;;;;;;53.10;49.80;;;30.40;51.90;;;;;;5004200;28;20545;-66
2022/08/26 10:31:04;;;;;;;43.03;40.50;;;30.20;52.30;;;;;;5000792;28;20575;-68
2022/08/26 10:33:31;;;;;;;46.60;43.60;;;30.10;52.50;;;;;;5003199;28;20868;-66
2022/08/26 10:36:03;;;;;;;42.40;40.07;;;30.00;52.30;;;;;;5004096;28;20963;-66
2022/08/26 10:38:34;;;;;;;46.20;43.10;;;30.00;52.30;;;;;;5006959;28;20920;-66
2022/08/26 10:41:07;;;;;;;42.60;39.73;;;29.80;52.30;;;;;;5009461;28;20535;-66
2022/08/26 10:43:40;;;;;;;46.57;43.70;;;29.70;52.90;;;;;;5002587;28;20828;-65
2022/08/26 10:46:12;;;;;;;43.77;40.97;;;29.60;52.90;;;;;;5009789;28;21052;-66
2022/08/26 10:48:45;;;;;;;42.27;39.27;;;29.50;53.10;;;;;;5008109;28;20532;-65
2022/08/26 10:51:14;;;;;;;43.57;40.90;;;29.50;52.50;;;;;;5004492;28;20564;-65
2022/08/26 10:53:47;;;;;;;44.90;42.10;;;29.50;52.70;;;;;;5003670;28;20547;-66
2022/08/26 10:56:29;;;;;;;57.27;54.30;;;29.50;52.50;;;;;;5010160;28;20855;-65
2022/08/26 10:59:06;;;;;;;62.77;59.00;;;29.50;52.70;;;;;;5005932;28;21403;-69
2022/08/26 11:01:44;;;;;;;50.30;46.97;;;29.60;52.60;;;;;;4998110;28;20535;-72
2022/08/26 11:04:34;;;;;;;47.63;44.63;;;29.60;52.40;;;;;;4997594;28;21050;-70
2022/08/26 11:07:51;;;;;;;56.90;53.77;;;29.70;52.80;;;;;;4998562;28;20565;-70
2022/08/26 11:10:50;;;;;;;58.07;54.87;;;30.00;53.10;;;;;;4959999;28;20459;-70
2022/08/26 11:13:18;;;;;;;51.67;48.60;;;30.30;52.00;;;;;;4953494;28;20473;-72
2022/08/26 11:16:10;;;;;;;52.97;50.13;;;30.50;50.40;;;;;;5003433;28;20460;-71
2022/08/26 11:18:43;;;;;;;55.30;52.30;;;30.70;50.90;;;;;;5011027;28;20898;-70
2022/08/26 11:21:46;;;;;;;64.17;60.60;;;30.90;48.90;;;;;;5004547;28;20509;-73
2022/08/26 11:24:42;;;;;;;51.50;48.20;;;31.00;48.90;;;;;;5000372;28;20480;-72
2022/08/26 11:27:25;;;;;;;44.17;41.53;;;31.40;48.60;;;;;;5003070;28;20483;-71
2022/08/26 11:30:01;;;;;;;43.50;40.90;;;31.70;48.20;;;;;;4985472;28;20458;-68
2022/08/26 11:32:49;;;;;;;60.30;56.93;;;31.90;46.80;;;;;;5003468;28;20499;-69
2022/08/26 11:35:48;;;;;;;42.83;40.10;;;31.90;47.00;;;;;;4997259;28;20461;-69
2022/08/26 11:38:24;;;;;;;52.37;49.17;;;32.10;46.60;;;;;;4996660;28;20464;-69
2022/08/26 11:41:06;;;;;;;47.13;43.83;;;32.20;47.20;;;;;;5005622;28;20509;-69
2022/08/26 11:43:35;;;;;;;52.00;48.67;;;32.10;48.40;;;;;;5013101;28;20831;-68
2022/08/26 11:46:04;;;;;;;62.37;58.77;;;31.70;49.60;;;;;;5003063;28;20481;-69
2022/08/26 11:48:35;;;;;;;42.33;39.70;;;31.30;50.60;;;;;;5002659;28;20506;-68
2022/08/26 11:51:05;;;;;;;47.20;44.50;;;31.30;50.50;;;;;;5003232;28;20572;-66
2022/08/26 11:53:37;;;;;;;42.03;39.57;;;31.20;50.50;;;;;;5000916;28;20544;-67
2022/08/26 11:56:09;;;;;;;59.03;54.97;;;31.30;50.40;;;;;;5006969;28;20460;-67
2022/08/26 11:58:42;;;;;;;55.80;52.53;;;31.50;50.20;;;;;;5007054;28;20552;-67
2022/08/26 12:01:11;;;;;;;54.93;51.23;;;31.60;49.70;;;;;;5002171;28;20552;-66
2022/08/26 12:03:47;;;;;;;75.97;71.90;;;31.60;49.70;;;;;;4998138;28;20532;-66
2022/08/26 12:06:16;;;;;;;43.27;40.97;;;31.60;49.40;;;;;;5001483;28;20592;-68
2022/08/26 12:08:47;;;;;;;44.00;41.43;;;31.50;49.80;;;;;;5004040;28;20532;-68
2022/08/26 12:11:23;;;;;;;60.13;56.43;;;31.30;49.70;;;;;;4998207;28;20576;-67
2022/08/26 12:14:01;;;;;;;41.77;39.37;;;31.60;49.00;;;;;;5005280;28;20471;-68
2022/08/26 12:16:30;;;;;;;71.30;67.90;;;31.70;48.80;;;;;;5004795;28;20459;-70
2022/08/26 12:19:01;;;;;;;50.17;47.33;;;31.50;49.30;;;;;;5004583;28;20466;-70
2022/08/26 12:21:31;;;;;;;56.80;53.00;;;31.60;48.90;;;;;;5002328;28;20581;-70
2022/08/26 12:24:00;;;;;;;63.27;59.57;;;31.80;48.90;;;;;;5002551;28;20465;-75
2022/08/26 12:26:29;;;;;;;44.83;41.90;;;32.00;48.50;;;;;;5003793;28;20564;-70
2022/08/26 12:28:59;;;;;;;52.87;49.77;;;32.10;48.30;;;;;;5003122;28;20461;-73
2022/08/26 12:31:29;;;;;;;64.40;60.70;;;32.40;48.00;;;;;;5005317;28;20582;-71
2022/08/26 12:34:02;;;;;;;65.40;61.00;;;32.60;47.90;;;;;;5005357;28;20461;-73
2022/08/26 12:36:33;;;;;;;46.33;43.43;;;32.70;47.70;;;;;;5008071;28;20500;-70
2022/08/26 12:39:07;;;;;;;44.67;42.10;;;32.80;46.90;;;;;;5004627;28;20456;-70
2022/08/26 12:41:48;;;;;;;44.53;41.83;;;33.00;46.70;;;;;;5005481;28;21030;-71
2022/08/26 12:44:36;;;;;;;52.50;49.40;;;33.00;46.20;;;;;;5010729;28;20880;-70
2022/08/26 12:47:07;;;;;;;46.70;44.00;;;33.00;46.90;;;;;;5011137;28;20483;-70
2022/08/26 12:49:36;;;;;;;47.77;44.73;;;32.80;47.60;;;;;;5006350;28;20480;-71
2022/08/26 12:52:07;;;;;;;59.37;55.70;;;32.60;48.10;;;;;;5010137;28;20551;-72